createdAt,value
2022-08-04T00:00:10.284Z,3.10
2022-08-04T00:02:58.755Z,2.53
2022-08-04T00:06:04.462Z,2.60
2022-08-04T00:08:41.834Z,2.83
2022-08-04T00:11:15.231Z,2.67
2022-08-04T00:13:58.090Z,2.78
2022-08-04T00:16:32.952Z,2.90
2022-08-04T00:19:10.665Z,2.70
2022-08-04T00:21:39.615Z,3.35
2022-08-04T00:24:10.623Z,3.28
2022-08-04T00:26:40.471Z,2.83
2022-08-04T00:29:07.865Z,2.97
2022-08-04T00:31:54.891Z,2.90
2022-08-04T00:34:24.960Z,3.10
2022-08-04T00:36:52.351Z,2.85
2022-08-04T00:39:20.053Z,3.00
2022-08-04T00:41:56.986Z,2.95
2022-08-04T00:45:00.478Z,3.03
2022-08-04T00:48:04.825Z,2.88
2022-08-04T00:50:41.030Z,3.13
2022-08-04T00:53:17.286Z,3.78
2022-08-04T00:55:53.575Z,3.30
2022-08-04T00:58:43.731Z,2.90
2022-08-04T01:01:33.841Z,2.88
2022-08-04T01:04:16.486Z,3.10
2022-08-04T01:07:24.955Z,2.92
2022-08-04T01:10:04.586Z,2.50
2022-08-04T01:12:37.781Z,2.97
2022-08-04T01:15:05.727Z,2.80
2022-08-04T01:17:48.135Z,2.90
2022-08-04T01:20:20.699Z,3.03
2022-08-04T01:23:12.704Z,3.15
2022-08-04T01:25:49.269Z,2.97
2022-08-04T01:28:43.117Z,3.13
2022-08-04T01:31:26.276Z,2.75
2022-08-04T01:34:03.475Z,2.72
2022-08-04T01:36:38.209Z,3.38
2022-08-04T01:39:24.558Z,3.00
2022-08-04T01:41:57.799Z,2.80
2022-08-04T01:44:30.552Z,3.00
2022-08-04T01:46:57.959Z,2.67
2022-08-04T01:49:26.651Z,2.97
2022-08-04T01:51:54.092Z,2.90
2022-08-04T01:54:21.504Z,2.80
2022-08-04T01:56:50.487Z,2.78
2022-08-04T01:59:21.386Z,3.60
2022-08-04T02:01:48.853Z,2.97
2022-08-04T02:04:23.337Z,3.08
2022-08-04T02:07:41.940Z,2.85
2022-08-04T02:10:16.956Z,2.83
2022-08-04T02:13:01.018Z,2.70
2022-08-04T02:16:16.182Z,2.83
2022-08-04T02:19:06.694Z,2.95
2022-08-04T02:21:42.706Z,3.45
2022-08-04T02:24:15.374Z,2.67
2022-08-04T02:26:43.380Z,3.13
2022-08-04T02:29:21.369Z,3.00
2022-08-04T02:31:52.482Z,2.70
2022-08-04T02:34:29.427Z,2.85
2022-08-04T02:36:56.983Z,2.90
2022-08-04T02:39:24.458Z,2.65
2022-08-04T02:41:51.891Z,2.88
2022-08-04T02:44:23.288Z,2.70
2022-08-04T02:46:52.356Z,2.70
2022-08-04T02:49:19.848Z,3.13
2022-08-04T02:51:50.368Z,3.60
2022-08-04T02:54:30.507Z,2.92
2022-08-04T02:57:01.657Z,2.88
2022-08-04T02:59:30.228Z,3.00
2022-08-04T03:01:58.398Z,3.20
2022-08-04T03:04:25.817Z,2.97
2022-08-04T03:07:15.794Z,3.20
2022-08-04T03:10:33.854Z,3.55
2022-08-04T03:13:09.909Z,3.10
2022-08-04T03:15:59.351Z,3.10
2022-08-04T03:18:48.058Z,3.58
2022-08-04T03:21:46.461Z,3.60
2022-08-04T03:24:35.406Z,3.45
2022-08-04T03:27:38.043Z,3.28
2022-08-04T03:30:24.684Z,3.40
2022-08-04T03:33:04.695Z,3.80
2022-08-04T03:35:56.966Z,3.40
2022-08-04T03:38:57.068Z,3.50
2022-08-04T03:41:51.324Z,3.35
2022-08-04T03:44:46.073Z,3.67
2022-08-04T03:47:27.558Z,4.38
2022-08-04T03:50:16.699Z,3.22
2022-08-04T03:53:11.712Z,3.38
2022-08-04T03:56:23.799Z,3.72
2022-08-04T03:59:24.460Z,3.67
2022-08-04T04:02:14.910Z,3.50
2022-08-04T04:05:12.681Z,3.58
2022-08-04T04:08:03.752Z,3.60
2022-08-04T04:11:08.730Z,3.47
2022-08-04T04:14:14.987Z,3.30
2022-08-04T04:16:50.035Z,3.42
2022-08-04T04:19:36.330Z,3.60
2022-08-04T04:22:35.409Z,3.38
2022-08-04T04:25:25.852Z,3.30
2022-08-04T04:28:45.167Z,3.50
2022-08-04T04:31:22.473Z,3.47
2022-08-04T04:34:04.847Z,4.13
2022-08-04T04:36:47.273Z,3.40
2022-08-04T04:39:44.885Z,3.38
2022-08-04T04:42:31.126Z,3.60
2022-08-04T04:45:15.465Z,3.17
2022-08-04T04:48:16.614Z,3.47
2022-08-04T04:50:51.183Z,3.80
2022-08-04T04:53:38.768Z,4.07
2022-08-04T04:56:08.989Z,3.60
2022-08-04T04:58:36.389Z,3.20
2022-08-04T05:01:18.759Z,4.60
2022-08-04T05:04:04.807Z,3.55
2022-08-04T05:06:45.574Z,3.85
2022-08-04T05:09:38.129Z,4.25
2022-08-04T05:14:31.601Z,4.18
2022-08-04T05:15:08.631Z,4.10
2022-08-04T05:17:38.717Z,4.38
2022-08-04T05:20:29.515Z,4.25
2022-08-04T05:23:08.917Z,3.95
2022-08-04T05:25:50.167Z,4.03
2022-08-04T05:28:43.754Z,4.43
2022-08-04T05:31:12.595Z,3.95
2022-08-04T05:33:50.928Z,4.03
2022-08-04T05:36:39.605Z,4.18
2022-08-04T05:39:08.786Z,4.13
2022-08-04T05:41:45.151Z,3.95
2022-08-04T05:44:19.739Z,4.32
2022-08-04T05:46:54.182Z,3.45
2022-08-04T05:49:26.065Z,3.97
2022-08-04T05:51:54.480Z,3.63
2022-08-04T05:54:22.021Z,4.32
2022-08-04T05:56:49.860Z,3.78
2022-08-04T05:59:17.824Z,4.22
2022-08-04T06:01:55.827Z,3.92
2022-08-04T06:04:31.462Z,3.72
2022-08-04T06:06:58.829Z,4.10
2022-08-04T06:09:26.229Z,3.58
2022-08-04T06:12:02.008Z,3.50
2022-08-04T06:14:43.632Z,3.85
2022-08-04T06:18:33.855Z,3.28
2022-08-04T06:20:22.101Z,3.70
2022-08-04T06:22:52.593Z,3.58
2022-08-04T06:25:26.453Z,3.60
2022-08-04T06:27:54.002Z,3.90
2022-08-04T06:30:26.108Z,4.30
2022-08-04T06:33:04.333Z,3.40
2022-08-04T06:35:32.807Z,3.78
2022-08-04T06:38:01.331Z,3.42
2022-08-04T06:40:32.903Z,3.25
2022-08-04T06:43:05.588Z,3.60
2022-08-04T06:45:34.945Z,3.45
2022-08-04T06:48:04.021Z,3.78
2022-08-04T06:51:33.271Z,3.92
2022-08-04T06:53:19.469Z,3.45
2022-08-04T06:55:48.435Z,3.80
2022-08-04T06:58:16.612Z,3.55
2022-08-04T07:00:45.104Z,3.80
2022-08-04T07:03:12.637Z,3.83
2022-08-04T07:05:40.708Z,3.45
2022-08-04T07:08:10.397Z,3.50
2022-08-04T07:10:38.162Z,3.95
2022-08-04T07:13:05.784Z,3.53
2022-08-04T07:15:33.400Z,2.90
2022-08-04T07:18:03.740Z,3.75
2022-08-04T07:23:21.422Z,3.08
2022-08-04T07:25:59.652Z,3.08
2022-08-04T07:28:38.927Z,3.15
2022-08-04T07:31:06.438Z,3.22
2022-08-04T07:33:33.916Z,3.10
2022-08-04T07:36:11.400Z,3.13
2022-08-04T07:38:46.506Z,3.55
2022-08-04T07:41:40.726Z,3.30
2022-08-04T07:44:13.421Z,3.20
2022-08-04T07:46:44.542Z,3.60
2022-08-04T07:49:55.446Z,3.83
2022-08-04T07:52:02.531Z,3.05
2022-08-04T07:54:29.944Z,3.42
2022-08-04T07:56:57.296Z,3.28
2022-08-04T07:59:24.924Z,2.95
2022-08-04T08:01:52.270Z,3.50
2022-08-04T08:04:19.601Z,3.28
2022-08-04T08:06:47.150Z,3.30
2022-08-04T08:09:16.088Z,3.30
2022-08-04T08:12:36.814Z,3.33
2022-08-04T08:14:31.666Z,3.53
2022-08-04T08:17:01.478Z,2.95
2022-08-04T08:19:30.541Z,3.30
2022-08-04T08:22:00.276Z,3.00
2022-08-04T08:24:29.251Z,3.13
2022-08-04T08:26:56.969Z,2.75
2022-08-04T08:29:25.672Z,3.17
2022-08-04T08:32:05.547Z,2.95
2022-08-04T08:51:10.026Z,3.00
2022-08-04T08:53:52.708Z,3.10
2022-08-04T08:56:42.146Z,2.80
2022-08-04T08:59:37.295Z,2.88
2022-08-04T09:02:13.635Z,2.97
2022-08-04T09:04:56.038Z,2.88
2022-08-04T09:07:58.473Z,3.70
2022-08-04T09:10:33.669Z,2.90
2022-08-04T09:13:19.613Z,3.10
2022-08-04T09:15:54.971Z,3.25
2022-08-04T09:18:29.040Z,3.38
2022-08-04T09:21:26.313Z,2.80
2022-08-04T09:24:35.779Z,2.85
2022-08-04T09:27:00.415Z,2.97
2022-08-04T09:30:07.272Z,2.90
2022-08-04T09:32:59.588Z,2.97
2022-08-04T09:35:40.827Z,2.83
2022-08-04T09:38:42.866Z,3.15
2022-08-04T09:41:33.930Z,2.78
2022-08-04T09:44:57.663Z,2.35
2022-08-04T09:47:39.522Z,2.70
2022-08-04T09:50:28.531Z,2.60
2022-08-04T09:53:14.655Z,2.92
2022-08-04T09:55:53.034Z,2.83
2022-08-04T09:58:37.367Z,2.75
2022-08-04T10:01:08.394Z,2.85
2022-08-04T10:03:37.084Z,2.80
2022-08-04T10:06:19.439Z,2.70
2022-08-04T10:09:12.886Z,2.75
2022-08-04T10:12:01.317Z,2.67
2022-08-04T10:14:47.336Z,4.70
2022-08-04T10:17:43.636Z,3.10
2022-08-04T10:20:44.822Z,2.40
2022-08-04T10:23:55.879Z,2.78
2022-08-04T10:26:47.978Z,2.67
2022-08-04T10:29:32.416Z,2.53
2022-08-04T10:32:04.655Z,2.45
2022-08-04T10:34:36.695Z,2.30
2022-08-04T10:37:07.007Z,2.08
2022-08-04T10:40:10.691Z,2.10
2022-08-04T10:42:43.060Z,1.90
2022-08-04T10:45:16.472Z,2.10
2022-08-04T10:48:06.141Z,1.93
2022-08-04T10:50:38.511Z,2.30
2022-08-04T10:53:18.701Z,2.28
2022-08-04T10:56:05.566Z,2.08
2022-08-04T10:58:48.106Z,2.50
2022-08-04T11:02:01.323Z,2.00
2022-08-04T11:04:27.611Z,2.40
2022-08-04T11:06:55.699Z,2.40
2022-08-04T11:09:23.119Z,2.22
2022-08-04T11:12:01.495Z,2.00
2022-08-04T11:14:52.469Z,2.55
2022-08-04T11:17:45.230Z,2.35
2022-08-04T11:20:36.202Z,2.35
2022-08-04T11:23:12.066Z,2.33
2022-08-04T11:26:03.388Z,2.13
2022-08-04T11:28:34.264Z,3.65
2022-08-04T11:31:06.293Z,2.10
2022-08-04T11:33:45.898Z,2.25
2022-08-04T11:36:22.537Z,1.90
2022-08-04T11:39:27.504Z,2.00
2022-08-04T11:42:21.472Z,2.20
2022-08-04T11:44:52.665Z,2.13
2022-08-04T11:47:34.386Z,2.05
2022-08-04T11:50:10.269Z,2.60
2022-08-04T11:52:39.012Z,2.17
2022-08-04T11:55:11.475Z,2.00
2022-08-04T11:57:38.867Z,1.90
2022-08-04T12:00:10.021Z,1.85
2022-08-04T12:02:56.870Z,1.80
2022-08-04T12:05:41.864Z,2.05
2022-08-04T12:08:19.392Z,1.85
2022-08-04T12:10:58.699Z,1.65
2022-08-04T12:13:35.344Z,1.52
2022-08-04T12:16:03.099Z,1.90
2022-08-04T12:18:58.212Z,1.70
2022-08-04T12:21:37.985Z,1.77
2022-08-04T12:24:16.923Z,1.80
2022-08-04T12:26:49.393Z,1.73
2022-08-04T12:29:16.788Z,1.70
2022-08-04T12:31:51.839Z,1.85
2022-08-04T12:34:31.371Z,2.03
2022-08-04T12:37:28.400Z,1.80
2022-08-04T12:40:28.173Z,1.85
2022-08-04T12:43:04.127Z,2.00
2022-08-04T12:45:31.544Z,2.10
2022-08-04T12:47:59.615Z,1.95
2022-08-04T12:50:27.997Z,2.10
2022-08-04T12:53:02.064Z,1.52
2022-08-04T12:55:31.931Z,1.70
2022-08-04T12:57:59.389Z,1.50
2022-08-04T13:00:40.600Z,1.40
2022-08-04T13:03:11.780Z,2.08
2022-08-04T13:05:42.591Z,1.80
2022-08-04T13:08:11.364Z,1.80
2022-08-04T13:10:46.803Z,1.83
2022-08-04T13:13:17.187Z,2.05
2022-08-04T13:15:56.681Z,1.90
2022-08-04T13:18:30.105Z,1.65
2022-08-04T13:21:19.388Z,1.90
2022-08-04T13:24:09.790Z,1.88
2022-08-04T13:26:57.916Z,1.92
2022-08-04T13:30:00.536Z,1.77
2022-08-04T13:32:28.683Z,1.70
2022-08-04T13:34:56.539Z,1.80
2022-08-04T13:37:26.838Z,1.70
2022-08-04T13:39:55.208Z,1.55
2022-08-04T13:42:24.191Z,1.90
2022-08-04T13:44:55.198Z,1.63
2022-08-04T13:47:25.513Z,1.65
2022-08-04T13:50:32.283Z,4.15
2022-08-04T13:53:00.854Z,2.10
2022-08-04T13:55:32.107Z,2.00
2022-08-04T13:58:19.968Z,1.88
2022-08-04T14:01:07.640Z,1.67
2022-08-04T14:03:53.645Z,1.77
2022-08-04T14:06:25.373Z,1.83
2022-08-04T14:09:01.096Z,1.70
2022-08-04T14:12:09.343Z,1.85
2022-08-04T14:14:31.811Z,2.38
2022-08-04T14:17:19.660Z,2.00
2022-08-04T14:20:01.611Z,1.63
2022-08-04T14:22:34.735Z,1.70
2022-08-04T14:25:06.675Z,1.90
2022-08-04T14:27:44.184Z,1.90
2022-08-04T14:30:33.183Z,1.95
2022-08-04T14:34:01.576Z,2.05
2022-08-04T14:35:59.602Z,2.00
2022-08-04T14:38:50.778Z,1.75
2022-08-04T14:41:20.505Z,2.08
2022-08-04T14:43:54.985Z,1.88
2022-08-04T14:46:23.533Z,1.90
2022-08-04T14:49:10.397Z,1.92
2022-08-04T14:51:41.163Z,1.90
2022-08-04T14:54:13.144Z,2.20
2022-08-04T14:56:53.111Z,2.20
2022-08-04T14:59:20.527Z,1.80
2022-08-04T15:08:10.591Z,1.77
2022-08-04T15:10:41.293Z,1.70
2022-08-04T15:13:19.948Z,2.00
2022-08-04T15:16:07.046Z,1.55
2022-08-04T15:19:00.867Z,1.95
2022-08-04T15:21:29.008Z,1.92
2022-08-04T15:23:57.205Z,1.88
2022-08-04T15:26:35.638Z,1.85
2022-08-04T15:30:00.259Z,1.92
2022-08-04T15:32:25.009Z,2.08
2022-08-04T15:38:00.127Z,1.80
2022-08-04T15:40:48.245Z,1.80
2022-08-04T15:43:21.399Z,2.42
2022-08-04T15:46:02.322Z,1.83
2022-08-04T15:48:40.899Z,2.05
2022-08-04T15:51:20.501Z,1.70
2022-08-04T15:54:32.922Z,1.60
2022-08-04T15:57:03.073Z,1.67
2022-08-04T16:00:04.132Z,2.20
2022-08-04T16:02:47.317Z,1.88
2022-08-04T16:05:18.636Z,1.80
2022-08-04T16:07:58.460Z,2.63
2022-08-04T16:10:35.314Z,2.13
2022-08-04T16:13:16.453Z,2.25
2022-08-04T16:15:47.930Z,1.70
2022-08-04T16:18:30.827Z,1.98
2022-08-04T16:21:04.171Z,1.70
2022-08-04T16:24:05.632Z,2.00
2022-08-04T16:26:45.604Z,2.17
2022-08-04T16:29:22.746Z,1.75
2022-08-04T16:32:05.608Z,2.08
2022-08-04T16:34:49.593Z,1.90
2022-08-04T16:37:35.685Z,2.40
2022-08-04T16:40:29.768Z,3.20
2022-08-04T16:43:22.213Z,1.60
2022-08-04T16:46:02.133Z,1.67
2022-08-04T16:48:30.870Z,1.90
2022-08-04T16:51:07.909Z,2.17
2022-08-04T16:54:02.676Z,2.03
2022-08-04T16:56:36.061Z,1.85
2022-08-04T16:59:10.736Z,2.17
2022-08-04T17:01:44.720Z,2.00
2022-08-04T17:06:43.100Z,2.00
2022-08-04T17:09:15.307Z,2.08
2022-08-04T17:11:43.346Z,2.60
2022-08-04T17:14:10.836Z,1.92
2022-08-04T17:16:42.538Z,1.60
2022-08-04T17:19:24.392Z,1.60
2022-08-04T17:22:04.332Z,1.80
2022-08-04T17:24:34.038Z,2.28
2022-08-04T17:27:01.420Z,2.33
2022-08-04T17:29:42.831Z,2.17
2022-08-04T17:32:16.813Z,2.00
2022-08-04T17:34:51.418Z,1.88
2022-08-04T17:37:38.507Z,1.95
2022-08-04T17:40:10.262Z,2.25
2022-08-04T17:42:39.826Z,1.83
2022-08-04T17:45:48.723Z,2.92
2022-08-04T17:47:57.036Z,2.20
2022-08-04T17:50:29.542Z,2.00
2022-08-04T17:53:11.647Z,2.40
2022-08-04T17:55:46.816Z,1.92
2022-08-04T17:58:21.046Z,1.95
2022-08-04T18:03:51.577Z,2.60
2022-08-04T18:06:21.878Z,2.47
2022-08-04T18:11:41.959Z,2.40
2022-08-04T18:14:10.428Z,2.20
2022-08-04T18:16:45.051Z,2.15
2022-08-04T18:19:14.057Z,2.53
2022-08-04T18:21:45.628Z,2.70
2022-08-04T18:24:34.596Z,3.10
2022-08-04T18:27:06.637Z,2.58
2022-08-04T18:29:39.424Z,2.28
2022-08-04T18:32:09.147Z,2.03
2022-08-04T18:34:40.813Z,2.40
2022-08-04T18:38:03.654Z,2.30
2022-08-04T18:40:26.642Z,2.40
2022-08-04T18:42:57.843Z,2.83
2022-08-04T18:45:33.964Z,3.08
2022-08-04T18:48:02.137Z,2.70
2022-08-04T18:51:00.871Z,2.70
2022-08-04T18:53:18.886Z,3.80
2022-08-04T18:55:57.227Z,4.80
2022-08-04T18:58:27.411Z,4.80
2022-08-04T19:00:56.190Z,5.28
2022-08-04T19:06:16.279Z,4.13
2022-08-04T19:08:45.296Z,4.05
2022-08-04T19:11:37.463Z,3.80
2022-08-04T19:14:04.546Z,3.80
2022-08-04T19:16:32.635Z,4.15
2022-08-04T19:19:02.043Z,4.47
2022-08-04T19:22:00.033Z,4.10
2022-08-04T19:24:32.692Z,3.75
2022-08-04T19:27:07.538Z,3.95
2022-08-04T19:32:25.815Z,4.07
2022-08-04T19:34:54.394Z,3.83
2022-08-04T19:38:01.688Z,4.60
2022-08-04T19:40:13.059Z,3.70
2022-08-04T19:42:42.706Z,3.60
2022-08-04T19:45:15.441Z,3.50
2022-08-04T19:48:21.643Z,3.58
2022-08-04T19:50:32.437Z,3.58
2022-08-04T19:53:00.872Z,3.63
2022-08-04T19:55:37.196Z,3.83
2022-08-04T19:58:06.199Z,3.42
2022-08-04T20:00:35.315Z,3.88
2022-08-04T20:03:09.812Z,4.30
2022-08-04T20:05:54.993Z,3.85
2022-08-04T20:08:26.288Z,3.97
2022-08-04T20:10:55.413Z,3.40
2022-08-04T20:13:25.451Z,3.67
2022-08-04T20:16:01.279Z,3.80
2022-08-04T20:18:36.143Z,4.35
2022-08-04T20:21:18.905Z,4.60
2022-08-04T20:23:47.923Z,5.40
2022-08-04T20:26:16.284Z,4.30
2022-08-04T20:28:45.954Z,4.25
2022-08-04T20:31:19.257Z,4.40
2022-08-04T20:36:34.240Z,4.70
2022-08-04T20:39:03.556Z,5.03
2022-08-04T20:41:36.986Z,5.03
2022-08-04T20:44:04.508Z,4.50
2022-08-04T20:46:38.160Z,4.82
2022-08-04T20:49:06.155Z,5.00
2022-08-04T20:51:40.103Z,4.35
2022-08-04T20:54:16.651Z,4.03
2022-08-04T20:56:55.511Z,3.83
2022-08-04T20:59:22.928Z,3.88
2022-08-04T21:01:53.878Z,4.10
2022-08-04T21:04:35.792Z,4.30
2022-08-04T21:07:05.724Z,3.90
2022-08-04T21:09:38.122Z,4.15
2022-08-04T21:12:27.224Z,4.00
2022-08-04T21:15:01.080Z,4.90
2022-08-04T21:17:59.191Z,4.50
2022-08-04T21:20:27.266Z,4.47
2022-08-04T21:22:55.010Z,4.18
2022-08-04T21:25:22.443Z,4.25
2022-08-04T21:27:49.991Z,4.25
2022-08-04T21:30:26.041Z,4.10
2022-08-04T21:32:54.876Z,4.07
2022-08-04T21:35:36.738Z,4.50
2022-08-04T21:38:16.540Z,4.60
2022-08-04T21:40:54.517Z,4.43
2022-08-04T21:43:23.624Z,6.47
2022-08-04T21:45:54.993Z,4.50
2022-08-04T21:48:23.958Z,5.00
2022-08-04T21:50:55.310Z,4.50
2022-08-04T21:53:22.841Z,4.57
2022-08-04T21:56:06.172Z,4.30
2022-08-04T21:58:37.851Z,5.13
2022-08-04T22:01:12.569Z,5.10
2022-08-04T22:03:52.485Z,4.50
2022-08-04T22:06:28.468Z,4.50
2022-08-04T22:08:57.114Z,5.43
2022-08-04T22:11:49.229Z,5.15
2022-08-04T22:14:29.389Z,4.87
2022-08-04T22:17:02.798Z,4.13
2022-08-04T22:19:49.779Z,4.60
2022-08-04T22:22:24.533Z,4.80
2022-08-04T22:25:00.977Z,4.45
2022-08-04T22:27:47.627Z,4.18
2022-08-04T22:30:17.334Z,4.70
2022-08-04T22:32:48.251Z,4.82
2022-08-04T22:35:44.087Z,4.55
2022-08-04T22:38:31.765Z,4.78
2022-08-04T22:41:00.696Z,5.00
2022-08-04T22:43:33.556Z,4.90
2022-08-04T22:46:23.393Z,5.28
2022-08-04T22:48:52.000Z,4.97
2022-08-04T22:51:19.637Z,5.05
2022-08-04T22:53:48.727Z,4.82
2022-08-04T22:56:37.499Z,4.40
2022-08-04T22:59:04.748Z,4.38
2022-08-04T23:01:57.985Z,5.00
2022-08-04T23:04:19.491Z,4.65
2022-08-04T23:06:46.877Z,4.82
2022-08-04T23:09:16.177Z,5.07
2022-08-04T23:11:43.980Z,4.32
2022-08-04T23:14:11.582Z,4.80
2022-08-04T23:16:40.448Z,4.75
2022-08-04T23:19:12.146Z,4.80
2022-08-04T23:21:47.237Z,5.40
2022-08-04T23:24:15.346Z,4.70
2022-08-04T23:26:42.710Z,4.35
2022-08-04T23:29:10.160Z,4.10
2022-08-04T23:31:40.915Z,4.72
2022-08-04T23:34:24.891Z,4.25
2022-08-04T23:36:52.283Z,4.28
2022-08-04T23:39:19.729Z,5.00
2022-08-04T23:41:53.348Z,4.53
2022-08-04T23:44:25.778Z,5.18
2022-08-04T23:47:01.223Z,4.88
2022-08-04T23:52:23.298Z,4.50
2022-08-04T23:54:55.888Z,4.20
2022-08-04T23:57:23.248Z,4.78
2022-08-04T23:59:54.286Z,4.80
